Tecumseh, Canada
Current Conditions -  °F | °C
As of 6:00 PM on Monday 24 Nov 2014 (Local Time) from CYQG Reporting Station
Overcast Overcast  
Wind Chill: 27°   Ceiling: 2600
Heat Index: 39°   Visibility: 15mi
Dew Point: 32°   Wind: 35mph
Humidity: 75%   Direction: 230°SW
Pressure: 29.51"   Gusts: 47mph
Location:  42.32°N, 82.89°W
Report Text: CYQG 242300Z 23030G41KT 15SM OVC026 04/M00 A2951 RMK SC8 SLP996
Loading
Personal Weather Stations






























Interactive Weather Map New forecast layout! Learn more

10-Day Weather Forecast

Advertisements
Track Severe Weather on mobile